createdAt,value
2023-03-31T00:01:46.589Z,20.25
2023-03-31T00:04:15.529Z,18.42
2023-03-31T00:06:44.157Z,18.58
2023-03-31T00:09:19.084Z,16.50
2023-03-31T00:11:48.553Z,18.38
2023-03-31T00:14:18.686Z,22.10
2023-03-31T00:16:47.520Z,19.23
2023-03-31T00:19:18.975Z,23.08
2023-03-31T00:21:48.888Z,16.48
2023-03-31T00:24:18.150Z,24.02
2023-03-31T00:26:46.162Z,23.35
2023-03-31T00:29:15.057Z,18.55
2023-03-31T00:31:43.237Z,19.17
2023-03-31T00:34:12.231Z,15.50
2023-03-31T00:36:46.029Z,21.77
2023-03-31T00:39:18.077Z,22.98
2023-03-31T00:41:47.163Z,20.80
2023-03-31T00:44:27.999Z,20.70
2023-03-31T00:47:09.772Z,23.58
2023-03-31T00:49:58.291Z,30.88
2023-03-31T00:52:36.130Z,26.30
2023-03-31T00:55:12.469Z,29.08
2023-03-31T00:57:42.284Z,26.73
2023-03-31T01:00:17.010Z,27.80
2023-03-31T01:02:53.258Z,27.25
2023-03-31T01:05:30.048Z,29.58
2023-03-31T01:08:00.658Z,27.75
2023-03-31T01:10:30.569Z,26.98
2023-03-31T01:12:59.927Z,27.08
2023-03-31T01:15:27.918Z,26.13
2023-03-31T01:17:57.934Z,27.13
2023-03-31T01:20:32.486Z,30.50
2023-03-31T01:23:35.405Z,25.95
2023-03-31T01:26:33.873Z,30.33
2023-03-31T01:29:16.292Z,27.40
2023-03-31T01:32:02.203Z,37.22
2023-03-31T01:34:39.200Z,27.42
2023-03-31T01:37:33.135Z,29.88
2023-03-31T01:40:19.860Z,27.70
2023-03-31T01:42:52.821Z,25.25
2023-03-31T01:45:33.934Z,28.50
2023-03-31T01:48:44.002Z,27.13
2023-03-31T01:51:19.956Z,30.55
2023-03-31T01:53:57.331Z,26.25
2023-03-31T01:56:46.665Z,31.27
2023-03-31T01:59:20.169Z,29.42
2023-03-31T02:02:04.000Z,38.33
2023-03-31T02:07:39.149Z,24.27
2023-03-31T02:10:11.340Z,28.02
2023-03-31T02:12:44.018Z,27.27
2023-03-31T02:15:18.493Z,28.65
2023-03-31T02:17:51.135Z,30.45
2023-03-31T02:20:23.493Z,27.98
2023-03-31T02:22:57.200Z,29.80
2023-03-31T02:25:37.471Z,28.73
2023-03-31T02:28:13.262Z,25.50
2023-03-31T02:30:55.056Z,22.73
2023-03-31T02:33:23.252Z,22.98
2023-03-31T02:35:52.298Z,24.77
2023-03-31T02:38:21.314Z,28.55
2023-03-31T02:40:49.550Z,31.17
2023-03-31T02:43:18.231Z,28.13
2023-03-31T02:45:52.392Z,23.80
2023-03-31T02:48:29.010Z,31.98
2023-03-31T02:51:25.447Z,21.27
2023-03-31T02:54:21.672Z,23.08
2023-03-31T02:57:01.175Z,32.28
2023-03-31T02:59:47.893Z,28.83
2023-03-31T03:02:27.224Z,24.50
2023-03-31T03:05:18.959Z,24.90
2023-03-31T03:08:29.315Z,25.92
2023-03-31T03:11:06.817Z,23.88
2023-03-31T03:14:00.542Z,26.25
2023-03-31T03:16:53.236Z,28.08
2023-03-31T03:19:23.769Z,30.27
2023-03-31T03:21:51.745Z,31.85
2023-03-31T03:24:23.022Z,30.05
2023-03-31T03:26:51.967Z,33.53
2023-03-31T03:29:20.266Z,36.15
2023-03-31T03:31:48.517Z,32.65
2023-03-31T03:34:19.050Z,29.67
2023-03-31T03:36:48.022Z,31.50
2023-03-31T03:39:16.863Z,26.42
2023-03-31T03:41:44.900Z,33.10
2023-03-31T03:44:13.048Z,30.45
2023-03-31T03:46:41.767Z,26.08
2023-03-31T03:49:10.258Z,30.90
2023-03-31T03:51:38.452Z,33.72
2023-03-31T03:54:06.816Z,30.33
2023-03-31T03:56:35.775Z,30.75
2023-03-31T03:59:04.408Z,30.25
2023-03-31T04:01:32.651Z,24.77
2023-03-31T04:04:01.340Z,28.67
2023-03-31T04:06:30.046Z,31.55
2023-03-31T04:08:59.093Z,39.38
2023-03-31T04:11:28.225Z,31.30
2023-03-31T04:13:56.720Z,34.42
2023-03-31T04:16:25.598Z,32.72
2023-03-31T04:18:59.191Z,34.90
2023-03-31T04:21:27.799Z,38.03
2023-03-31T04:24:01.852Z,31.38
2023-03-31T04:26:39.261Z,37.00
2023-03-31T04:29:07.914Z,39.47
2023-03-31T04:31:39.042Z,41.13
2023-03-31T04:34:13.475Z,48.58
2023-03-31T04:36:49.807Z,38.25
2023-03-31T04:39:30.835Z,37.35
2023-03-31T04:42:01.170Z,40.10
2023-03-31T04:44:30.479Z,48.85
2023-03-31T04:46:59.172Z,43.55
2023-03-31T04:49:27.305Z,39.38
2023-03-31T04:51:55.438Z,49.90
2023-03-31T04:54:23.917Z,34.05
2023-03-31T04:56:53.398Z,32.13
2023-03-31T04:59:22.308Z,32.83
2023-03-31T05:01:50.886Z,31.60
2023-03-31T05:04:19.019Z,30.50
2023-03-31T05:06:47.397Z,30.58
2023-03-31T05:09:15.688Z,31.52
2023-03-31T05:11:44.299Z,96.03
2023-03-31T05:14:38.666Z,24.90
2023-03-31T05:17:06.921Z,21.63
2023-03-31T05:19:35.172Z,30.95
2023-03-31T05:22:03.848Z,32.17
2023-03-31T05:24:32.486Z,27.35
2023-03-31T05:27:00.688Z,29.80
2023-03-31T05:29:29.195Z,28.63
2023-03-31T05:31:58.580Z,31.85
2023-03-31T05:34:27.253Z,30.00
2023-03-31T05:36:55.598Z,23.70
2023-03-31T05:39:23.750Z,24.75
2023-03-31T05:41:51.858Z,22.25
2023-03-31T05:44:20.911Z,27.27
2023-03-31T05:46:49.586Z,19.15
2023-03-31T05:49:17.851Z,14.40
2023-03-31T05:51:46.906Z,18.67
2023-03-31T05:54:15.108Z,19.38
2023-03-31T05:56:43.929Z,15.50
2023-03-31T05:59:12.081Z,17.10
2023-03-31T06:01:41.241Z,17.83
2023-03-31T06:04:10.317Z,19.77
2023-03-31T06:06:39.483Z,20.08
2023-03-31T06:09:07.612Z,20.27
2023-03-31T06:11:35.763Z,20.50
2023-03-31T06:16:34.452Z,19.60
2023-03-31T06:19:02.661Z,21.50
2023-03-31T06:21:30.720Z,24.45
2023-03-31T06:24:00.507Z,24.38
2023-03-31T06:26:28.980Z,19.05
2023-03-31T06:28:57.539Z,19.38
2023-03-31T06:31:26.385Z,18.45
2023-03-31T06:33:55.146Z,18.25
2023-03-31T06:36:24.295Z,19.08
2023-03-31T06:38:52.561Z,20.75
2023-03-31T06:41:21.436Z,18.25
2023-03-31T06:43:50.603Z,14.57
2023-03-31T06:46:19.476Z,17.48
2023-03-31T06:48:48.136Z,14.25
2023-03-31T06:51:16.906Z,14.60
2023-03-31T06:53:45.521Z,14.63
2023-03-31T06:56:14.160Z,12.77
2023-03-31T06:58:42.449Z,15.35
2023-03-31T07:01:12.119Z,13.93
2023-03-31T07:03:40.538Z,16.77
2023-03-31T07:06:09.430Z,13.20
2023-03-31T07:08:38.301Z,11.68
2023-03-31T07:11:07.426Z,14.77
2023-03-31T07:13:36.334Z,16.08
2023-03-31T07:16:05.613Z,14.25
2023-03-31T07:18:36.729Z,13.57
2023-03-31T07:21:09.620Z,13.25
2023-03-31T07:23:39.185Z,16.08
2023-03-31T07:26:08.858Z,17.48
2023-03-31T07:28:43.490Z,25.20
2023-03-31T07:31:13.084Z,21.98
2023-03-31T07:33:42.108Z,21.45
2023-03-31T07:36:13.969Z,14.55
2023-03-31T07:38:44.379Z,18.98
2023-03-31T07:41:14.356Z,17.17
2023-03-31T07:43:42.920Z,17.42
2023-03-31T07:46:23.635Z,18.92
2023-03-31T07:48:54.711Z,15.90
2023-03-31T07:51:27.609Z,18.45
2023-03-31T07:53:56.020Z,23.63
2023-03-31T07:56:26.227Z,21.05
2023-03-31T07:58:57.570Z,14.43
2023-03-31T08:01:32.265Z,13.35
2023-03-31T08:04:01.524Z,13.32
2023-03-31T08:06:30.173Z,13.77
2023-03-31T08:08:59.960Z,14.32
2023-03-31T08:11:28.746Z,12.57
2023-03-31T08:13:57.716Z,21.13
2023-03-31T08:16:26.399Z,12.73
2023-03-31T08:18:54.525Z,10.77
2023-03-31T08:21:24.579Z,11.93
2023-03-31T08:23:55.197Z,9.30
2023-03-31T08:26:27.338Z,7.93
2023-03-31T08:28:59.327Z,10.55
2023-03-31T08:31:29.260Z,9.00
2023-03-31T08:33:57.622Z,9.38
2023-03-31T08:36:27.418Z,9.15
2023-03-31T08:38:56.365Z,10.73
2023-03-31T08:41:50.495Z,6.53
2023-03-31T08:44:31.574Z,9.20
2023-03-31T08:47:02.602Z,8.13
2023-03-31T08:49:41.639Z,7.93
2023-03-31T08:52:16.825Z,7.32
2023-03-31T08:54:52.789Z,10.35
2023-03-31T08:57:32.635Z,8.85
2023-03-31T09:00:07.288Z,9.93
2023-03-31T09:02:49.150Z,8.55
2023-03-31T09:05:28.368Z,6.47
2023-03-31T09:08:04.708Z,10.00
2023-03-31T09:10:42.943Z,11.02
2023-03-31T09:13:58.126Z,6.45
2023-03-31T09:17:03.046Z,10.60
2023-03-31T09:19:42.058Z,6.88
2023-03-31T09:22:17.984Z,10.07
2023-03-31T09:24:58.084Z,8.90
2023-03-31T09:27:31.504Z,7.32
2023-03-31T09:30:14.792Z,9.05
2023-03-31T09:32:43.424Z,9.07
2023-03-31T09:35:26.161Z,7.82
2023-03-31T09:37:59.349Z,10.60
2023-03-31T09:40:28.879Z,8.60
2023-03-31T09:43:01.901Z,8.57
2023-03-31T09:45:34.190Z,11.00
2023-03-31T09:48:07.381Z,7.72
2023-03-31T09:50:51.008Z,10.52
2023-03-31T09:53:28.024Z,10.65
2023-03-31T09:56:02.592Z,11.82
2023-03-31T09:58:31.935Z,9.73
2023-03-31T10:01:09.817Z,7.35
2023-03-31T10:03:54.966Z,8.05
2023-03-31T10:06:25.407Z,38.67
2023-03-31T10:08:56.981Z,18.52
2023-03-31T10:11:29.417Z,22.70
2023-03-31T10:14:14.615Z,20.80
2023-03-31T10:16:57.186Z,10.68
2023-03-31T10:19:28.809Z,8.23
2023-03-31T10:22:15.531Z,19.95
2023-03-31T10:24:48.616Z,10.85
2023-03-31T10:30:03.629Z,11.55
2023-03-31T10:32:35.585Z,12.88
2023-03-31T10:35:23.451Z,10.82
2023-03-31T10:37:57.331Z,19.20
2023-03-31T10:40:28.671Z,13.55
2023-03-31T10:43:16.615Z,11.00
2023-03-31T10:45:49.800Z,12.50
2023-03-31T10:48:30.841Z,11.30
2023-03-31T10:51:15.325Z,12.68
2023-03-31T10:53:52.423Z,11.52
2023-03-31T10:56:52.715Z,12.68
2023-03-31T10:59:22.142Z,12.40
2023-03-31T11:02:14.126Z,11.13
2023-03-31T11:04:57.560Z,9.07
2023-03-31T11:07:51.595Z,12.80
2023-03-31T11:10:26.498Z,11.15
2023-03-31T11:13:15.461Z,11.82
2023-03-31T11:15:55.821Z,11.25
2023-03-31T11:18:41.996Z,10.52
2023-03-31T11:21:31.882Z,10.25
2023-03-31T11:24:24.968Z,10.77
2023-03-31T11:26:59.558Z,8.82
2023-03-31T11:29:40.065Z,12.93
2023-03-31T11:32:34.970Z,12.80
2023-03-31T11:35:35.937Z,11.50
2023-03-31T11:38:13.537Z,9.82
2023-03-31T11:40:51.356Z,12.50
2023-03-31T11:43:32.765Z,12.77
2023-03-31T11:46:23.508Z,11.75
2023-03-31T11:48:59.236Z,11.30
2023-03-31T11:51:44.410Z,12.07
2023-03-31T11:54:29.426Z,13.60
2023-03-31T11:56:59.403Z,9.13
2023-03-31T11:59:32.048Z,10.38
2023-03-31T12:02:16.375Z,11.63
2023-03-31T12:04:51.404Z,8.50
2023-03-31T12:07:43.674Z,11.18
2023-03-31T12:10:24.539Z,12.48
2023-03-31T12:13:21.849Z,10.15
2023-03-31T12:16:05.101Z,11.52
2023-03-31T12:18:45.554Z,13.23
2023-03-31T12:21:14.589Z,10.68
2023-03-31T12:23:45.857Z,8.98
2023-03-31T12:26:33.290Z,11.25
2023-03-31T12:29:07.529Z,13.65
2023-03-31T12:31:39.522Z,9.93
2023-03-31T12:34:14.793Z,12.57
2023-03-31T12:36:46.285Z,10.13
2023-03-31T12:39:29.691Z,8.82
2023-03-31T12:42:26.068Z,8.88
2023-03-31T12:45:04.319Z,11.93
2023-03-31T12:47:42.816Z,9.93
2023-03-31T12:50:49.498Z,13.05
2023-03-31T12:53:39.794Z,9.25
2023-03-31T12:56:08.818Z,9.88
2023-03-31T12:58:38.502Z,10.48
2023-03-31T13:01:16.372Z,9.27
2023-03-31T13:03:55.639Z,11.93
2023-03-31T13:06:32.725Z,12.85
2023-03-31T13:09:27.807Z,9.10
2023-03-31T13:11:56.734Z,9.82
2023-03-31T13:14:25.119Z,10.85
2023-03-31T13:17:38.957Z,14.07
2023-03-31T13:22:52.858Z,9.52
2023-03-31T13:25:41.524Z,10.30
2023-03-31T13:28:23.512Z,11.15
2023-03-31T13:30:57.898Z,9.45
2023-03-31T13:33:32.354Z,11.10
2023-03-31T13:36:27.164Z,9.25
2023-03-31T13:39:38.845Z,15.57
2023-03-31T13:42:38.301Z,8.75
2023-03-31T13:45:32.256Z,11.90
2023-03-31T13:48:36.765Z,12.20
2023-03-31T13:51:27.157Z,14.05
2023-03-31T13:53:59.018Z,18.42
2023-03-31T13:56:40.016Z,9.88
2023-03-31T13:59:55.927Z,12.10
2023-03-31T14:02:59.917Z,15.32
2023-03-31T14:05:46.738Z,12.27
2023-03-31T14:08:33.771Z,11.60
2023-03-31T14:11:34.130Z,12.18
2023-03-31T14:14:20.890Z,12.75
2023-03-31T14:16:53.749Z,13.52
2023-03-31T14:19:48.188Z,13.57
2023-03-31T14:22:49.405Z,12.15
2023-03-31T14:25:36.818Z,11.35
2023-03-31T14:28:33.253Z,10.48
2023-03-31T14:31:13.602Z,12.38
2023-03-31T14:34:00.573Z,10.05
2023-03-31T14:36:42.480Z,9.73
2023-03-31T14:39:12.769Z,12.40
2023-03-31T14:41:44.930Z,14.18
2023-03-31T14:44:16.787Z,13.70
2023-03-31T14:46:47.144Z,12.45
2023-03-31T14:49:39.945Z,13.80
2023-03-31T14:52:39.807Z,9.18
2023-03-31T14:55:18.291Z,14.75
2023-03-31T14:57:49.217Z,11.82
2023-03-31T15:00:33.161Z,10.00
2023-03-31T15:03:04.223Z,12.55
2023-03-31T15:05:39.177Z,12.73
2023-03-31T15:08:24.258Z,10.55
2023-03-31T15:14:03.690Z,12.32
2023-03-31T15:16:43.904Z,9.30
2023-03-31T15:19:26.495Z,11.68
2023-03-31T15:22:21.528Z,11.67
2023-03-31T15:24:50.600Z,10.40
2023-03-31T15:27:39.892Z,9.57
2023-03-31T15:30:14.764Z,12.13
2023-03-31T15:32:44.320Z,14.40
2023-03-31T15:35:25.972Z,11.98
2023-03-31T15:37:59.026Z,11.98
2023-03-31T15:40:33.817Z,14.48
2023-03-31T15:43:33.621Z,15.77
2023-03-31T15:46:02.818Z,10.77
2023-03-31T15:48:48.761Z,12.77
2023-03-31T15:51:24.889Z,13.82
2023-03-31T15:53:54.713Z,12.73
2023-03-31T15:56:27.561Z,12.18
2023-03-31T15:59:04.579Z,12.50
2023-03-31T16:01:41.860Z,12.68
2023-03-31T16:04:14.205Z,10.57
2023-03-31T16:06:52.807Z,12.73
2023-03-31T16:09:41.364Z,9.82
2023-03-31T16:12:18.747Z,12.30
2023-03-31T16:14:54.054Z,9.18
2023-03-31T16:17:36.859Z,8.82
2023-03-31T16:20:17.026Z,12.23
2023-03-31T16:22:49.990Z,12.57
2023-03-31T16:25:22.492Z,13.63
2023-03-31T16:28:01.407Z,12.52
2023-03-31T16:30:41.570Z,12.30
2023-03-31T16:33:12.791Z,10.45
2023-03-31T16:35:43.958Z,11.95
2023-03-31T16:38:16.354Z,17.52
2023-03-31T16:40:47.339Z,10.85
2023-03-31T16:43:19.696Z,14.45
2023-03-31T16:45:53.948Z,13.63
2023-03-31T16:48:25.094Z,13.93
2023-03-31T16:50:56.178Z,9.82
2023-03-31T16:53:29.435Z,13.55
2023-03-31T16:55:58.696Z,15.68
2023-03-31T16:58:29.341Z,21.25
2023-03-31T17:00:59.073Z,13.68
2023-03-31T17:03:27.961Z,14.32
2023-03-31T17:05:59.392Z,12.65
2023-03-31T17:08:28.212Z,16.27
2023-03-31T17:11:00.806Z,16.27
2023-03-31T17:13:29.250Z,14.98
2023-03-31T17:16:04.543Z,18.73
2023-03-31T17:18:37.361Z,21.08
2023-03-31T17:21:11.799Z,17.60
2023-03-31T17:23:41.038Z,13.85
2023-03-31T17:26:10.639Z,17.83
2023-03-31T17:28:39.199Z,19.27
2023-03-31T17:31:18.953Z,17.20
2023-03-31T17:33:48.732Z,17.65
2023-03-31T17:36:17.208Z,22.60
2023-03-31T17:38:45.526Z,15.68
2023-03-31T17:41:14.368Z,14.40
2023-03-31T17:43:47.662Z,17.58
2023-03-31T17:46:16.517Z,24.02
2023-03-31T17:48:45.362Z,23.33
2023-03-31T17:51:16.944Z,18.45
2023-03-31T17:53:46.994Z,24.77
2023-03-31T17:56:17.174Z,20.63
2023-03-31T17:58:47.224Z,15.07
2023-03-31T18:01:15.660Z,23.48
2023-03-31T18:03:46.297Z,24.73
2023-03-31T18:06:15.208Z,27.70
2023-03-31T18:08:44.527Z,23.17
2023-03-31T18:11:13.534Z,27.38
2023-03-31T18:13:42.248Z,19.70
2023-03-31T18:16:13.284Z,18.83
2023-03-31T18:18:42.814Z,23.55
2023-03-31T18:21:13.587Z,22.95
2023-03-31T18:23:42.470Z,25.15
2023-03-31T18:26:13.110Z,22.73
2023-03-31T18:28:41.508Z,26.73
2023-03-31T18:31:11.012Z,83.88
2023-03-31T18:33:39.945Z,27.70
2023-03-31T18:36:13.970Z,26.55
2023-03-31T18:38:43.714Z,20.23
2023-03-31T18:41:12.876Z,19.58
2023-03-31T18:43:52.672Z,24.00
2023-03-31T18:46:21.539Z,23.63
2023-03-31T18:48:50.489Z,30.38
2023-03-31T18:51:18.763Z,20.63
2023-03-31T18:53:47.460Z,24.25
2023-03-31T18:56:21.705Z,22.27
2023-03-31T18:59:09.464Z,23.73
2023-03-31T19:01:47.213Z,17.80
2023-03-31T19:04:15.786Z,25.05
2023-03-31T19:06:44.331Z,37.15
2023-03-31T19:09:13.638Z,26.95
2023-03-31T19:11:41.925Z,25.45
2023-03-31T19:14:10.152Z,23.83
2023-03-31T19:16:42.561Z,24.25
2023-03-31T19:19:12.141Z,24.88
2023-03-31T19:21:43.030Z,29.20
2023-03-31T19:24:13.400Z,22.02
2023-03-31T19:26:42.107Z,21.73
2023-03-31T19:29:10.413Z,24.90
2023-03-31T19:31:38.774Z,25.02
2023-03-31T19:34:08.785Z,22.98
2023-03-31T19:36:37.872Z,27.27
2023-03-31T19:39:07.515Z,29.52
2023-03-31T19:41:36.499Z,28.17
2023-03-31T19:44:05.739Z,26.88
2023-03-31T19:46:33.923Z,25.10
2023-03-31T19:49:03.136Z,31.67
2023-03-31T19:51:31.475Z,26.38
2023-03-31T19:53:59.690Z,26.02
2023-03-31T19:56:28.563Z,27.27
2023-03-31T19:58:56.952Z,27.58
2023-03-31T20:01:27.614Z,36.55
2023-03-31T20:03:57.051Z,35.47
2023-03-31T20:06:28.344Z,28.90
2023-03-31T20:08:59.567Z,23.83
2023-03-31T20:11:31.158Z,31.33
2023-03-31T20:14:00.065Z,33.15
2023-03-31T20:16:30.770Z,35.78
2023-03-31T20:19:01.479Z,29.63
2023-03-31T20:21:31.893Z,28.52
2023-03-31T20:24:00.769Z,34.28
2023-03-31T20:26:31.129Z,32.92
2023-03-31T20:29:04.564Z,30.40
2023-03-31T20:31:39.534Z,26.85
2023-03-31T20:34:14.080Z,28.77
2023-03-31T20:36:44.020Z,27.55
2023-03-31T20:39:15.574Z,26.88
2023-03-31T20:41:44.200Z,30.80
2023-03-31T20:44:15.536Z,32.25
2023-03-31T20:46:45.244Z,31.13
2023-03-31T20:49:14.196Z,30.20
2023-03-31T20:51:43.868Z,39.40
2023-03-31T20:54:12.027Z,36.45
2023-03-31T20:56:41.821Z,38.20
2023-03-31T20:59:15.266Z,32.70
2023-03-31T21:01:47.281Z,35.85
2023-03-31T21:04:17.220Z,36.53
2023-03-31T21:06:47.296Z,34.67
2023-03-31T21:09:16.937Z,42.28
2023-03-31T21:11:46.046Z,41.28
2023-03-31T21:14:16.549Z,36.33
2023-03-31T21:16:45.878Z,40.40
2023-03-31T21:19:14.759Z,32.70
2023-03-31T21:21:43.469Z,40.67
2023-03-31T21:24:12.893Z,37.13
2023-03-31T21:26:41.682Z,33.42
2023-03-31T21:29:11.350Z,27.13
2023-03-31T21:31:41.781Z,26.85
2023-03-31T21:34:11.133Z,21.88
2023-03-31T21:36:40.261Z,25.73
2023-03-31T21:39:09.994Z,29.65
2023-03-31T21:41:40.682Z,30.60
2023-03-31T21:44:09.307Z,26.33
2023-03-31T21:46:39.299Z,28.63
2023-03-31T21:49:08.057Z,31.80
2023-03-31T21:51:37.177Z,25.77
2023-03-31T21:54:05.687Z,29.92
2023-03-31T21:56:34.262Z,26.65
2023-03-31T21:59:04.404Z,33.30
2023-03-31T22:01:32.617Z,31.60
2023-03-31T22:04:01.704Z,35.95
2023-03-31T22:06:29.843Z,32.80
2023-03-31T22:08:57.892Z,35.30
2023-03-31T22:11:26.845Z,40.20
2023-03-31T22:13:54.889Z,43.88
2023-03-31T22:16:24.306Z,37.63
2023-03-31T22:18:53.023Z,32.50
2023-03-31T22:21:28.301Z,32.45
2023-03-31T22:23:59.311Z,40.13
2023-03-31T22:26:29.876Z,32.97
2023-03-31T22:28:58.344Z,36.40
2023-03-31T22:31:27.178Z,31.85
2023-03-31T22:33:56.225Z,33.60
2023-03-31T22:36:24.724Z,32.50
2023-03-31T22:38:53.699Z,38.22
2023-03-31T22:41:22.071Z,32.35
2023-03-31T22:43:51.764Z,39.17
2023-03-31T22:46:20.857Z,31.73
2023-03-31T22:48:50.746Z,37.47
2023-03-31T22:51:19.877Z,37.25
2023-03-31T22:53:53.059Z,31.13
2023-03-31T22:58:51.536Z,35.00
2023-03-31T23:01:21.831Z,36.47
2023-03-31T23:03:50.641Z,34.90
2023-03-31T23:06:19.389Z,31.30
2023-03-31T23:08:49.100Z,41.80
2023-03-31T23:11:19.286Z,36.42
2023-03-31T23:13:47.824Z,38.88
2023-03-31T23:16:21.517Z,36.13
2023-03-31T23:18:52.869Z,33.72
2023-03-31T23:21:24.700Z,28.38
2023-03-31T23:23:57.571Z,34.85
2023-03-31T23:26:28.318Z,30.55
2023-03-31T23:28:59.302Z,35.88
2023-03-31T23:31:30.031Z,37.33
2023-03-31T23:33:59.743Z,43.47
2023-03-31T23:36:29.115Z,31.40
2023-03-31T23:38:57.413Z,32.65
2023-03-31T23:41:26.564Z,35.15
2023-03-31T23:43:56.021Z,35.13
2023-03-31T23:46:26.222Z,39.40
2023-03-31T23:48:54.855Z,38.33
2023-03-31T23:51:23.647Z,39.30
2023-03-31T23:53:52.376Z,30.08
2023-03-31T23:56:20.809Z,32.75
2023-03-31T23:58:48.880Z,26.55
